Time;durP1;ratioP1;P1;durP2;ratioP2;P2;SDS_P1;SDS_P2;PMS_P1;PMS_P2;Temp;Humidity;BMP_temperature;BMP_pressure;BME280_temperature;BME280_humidity;BME280_pressure;Samples;Min_cycle;Max_cycle;Signal;HPM_P1;HPM_P2
2023/01/28 00:00:06;;;;;;;7.50;6.80;;;6.60;99.90;;;;;;5031424;28;20394;-64
2023/01/28 00:02:32;;;;;;;8.63;7.47;;;6.60;99.90;;;;;;5004859;28;20518;-64
2023/01/28 00:04:58;;;;;;;7.90;7.10;;;6.50;99.90;;;;;;5036460;28;20508;-64
2023/01/28 00:07:24;;;;;;;7.80;7.03;;;6.40;99.90;;;;;;5034121;28;20473;-64
2023/01/28 00:09:49;;;;;;;8.27;7.47;;;6.40;99.90;;;;;;5033256;28;20190;-64
2023/01/28 00:12:15;;;;;;;8.33;7.53;;;6.40;99.90;;;;;;5052038;28;20186;-64
2023/01/28 00:14:41;;;;;;;7.53;6.83;;;6.50;99.90;;;;;;5051783;28;20564;-64
2023/01/28 00:17:07;;;;;;;6.70;6.10;;;6.50;99.90;;;;;;5042432;28;20187;-64
2023/01/28 00:19:32;;;;;;;7.90;7.13;;;6.50;99.90;;;;;;5014536;28;20607;-64
2023/01/28 00:21:58;;;;;;;6.63;6.03;;;6.50;99.90;;;;;;5031007;28;20177;-64
2023/01/28 00:24:24;;;;;;;7.50;6.80;;;6.50;99.90;;;;;;5043113;28;20484;-64
2023/01/28 00:26:50;;;;;;;9.10;6.80;;;6.50;99.90;;;;;;5051100;28;20266;-64
2023/01/28 00:29:16;;;;;;;7.40;6.70;;;6.40;99.90;;;;;;5017524;28;20207;-64
2023/01/28 00:31:41;;;;;;;7.67;6.97;;;6.40;99.90;;;;;;5052320;28;20524;-64
2023/01/28 00:34:08;;;;;;;7.27;6.60;;;6.50;99.90;;;;;;5055002;28;20586;-64
2023/01/28 00:36:38;;;;;;;7.60;6.90;;;6.50;99.90;;;;;;5041106;28;20192;-64
2023/01/28 00:39:05;;;;;;;8.93;6.77;;;6.40;99.90;;;;;;5017319;28;20401;-64
2023/01/28 00:41:31;;;;;;;7.47;6.73;;;6.40;99.90;;;;;;5035218;28;20437;-64
2023/01/28 00:43:57;;;;;;;7.03;6.33;;;6.30;99.90;;;;;;5034807;28;20503;-64
2023/01/28 00:46:25;;;;;;;6.77;6.17;;;6.30;99.90;;;;;;5035431;28;20942;-65
2023/01/28 00:48:51;;;;;;;8.00;7.20;;;6.30;99.90;;;;;;5034767;28;20403;-64
2023/01/28 00:51:18;;;;;;;8.33;7.30;;;6.30;99.90;;;;;;5035565;28;20451;-64
2023/01/28 00:53:45;;;;;;;8.10;7.13;;;6.30;99.90;;;;;;5043381;28;20474;-69
2023/01/28 00:56:14;;;;;;;8.00;7.20;;;6.30;99.90;;;;;;5037023;28;20897;-64
2023/01/28 00:58:41;;;;;;;7.70;6.90;;;6.30;99.90;;;;;;5055421;28;20400;-64
2023/01/28 01:01:13;;;;;;;7.70;7.00;;;6.50;99.90;;;;;;5053697;28;20341;-64
2023/01/28 01:03:39;;;;;;;7.80;6.93;;;6.50;99.90;;;;;;5055269;28;20675;-64
2023/01/28 01:06:05;;;;;;;8.40;7.67;;;6.50;99.90;;;;;;5053260;28;20953;-64
2023/01/28 01:08:34;;;;;;;7.30;6.60;;;6.50;99.90;;;;;;5055062;28;20421;-64
2023/01/28 01:11:02;;;;;;;7.03;6.37;;;6.50;99.90;;;;;;5054400;28;20429;-64
2023/01/28 01:13:28;;;;;;;7.38;6.78;;;6.40;99.90;;;;;;5043601;28;20445;-64
2023/01/28 01:16:11;;;;;;;7.10;6.40;;;6.40;99.90;;;;;;5034296;28;20180;-64
2023/01/28 01:18:40;;;;;;;6.70;6.10;;;6.30;99.90;;;;;;5035432;28;20383;-64
2023/01/28 01:21:18;;;;;;;7.85;7.15;;;6.30;99.90;;;;;;5048003;28;20421;-64
2023/01/28 01:23:45;;;;;;;7.40;6.70;;;6.20;99.90;;;;;;5042463;28;20292;-64
2023/01/28 01:26:11;;;;;;;7.50;6.80;;;6.10;99.90;;;;;;5054097;28;20203;-64
2023/01/28 01:28:37;;;;;;;7.17;6.57;;;6.10;99.90;;;;;;5036901;28;20179;-64
2023/01/28 01:31:10;;;;;;;6.95;6.35;;;6.00;99.90;;;;;;5053923;28;20482;-64
2023/01/28 01:33:36;;;;;;;8.07;7.23;;;6.00;99.90;;;;;;5038039;28;20187;-64
2023/01/28 01:36:02;;;;;;;7.83;7.13;;;6.10;99.90;;;;;;5048123;28;20481;-64
2023/01/28 01:38:28;;;;;;;7.10;6.40;;;6.10;99.90;;;;;;5054612;28;20396;-64
2023/01/28 01:40:59;;;;;;;8.70;7.65;;;6.10;99.90;;;;;;5053299;28;20883;-64
2023/01/28 01:43:25;;;;;;;8.70;6.20;;;6.10;99.90;;;;;;5053608;28;20217;-64
2023/01/28 01:45:59;;;;;;;6.80;6.20;;;6.20;99.90;;;;;;5053560;28;20561;-69
2023/01/28 01:48:34;;;;;;;7.90;7.10;;;6.20;99.90;;;;;;5054467;28;20158;-64
2023/01/28 01:51:10;;;;;;;8.52;7.20;;;6.30;99.90;;;;;;5053681;28;20421;-64
2023/01/28 01:53:44;;;;;;;7.57;6.90;;;6.30;99.90;;;;;;5036670;28;20599;-64
2023/01/28 01:56:13;;;;;;;7.77;7.17;;;6.30;99.90;;;;;;5033652;28;20424;-64
2023/01/28 01:58:42;;;;;;;6.90;6.40;;;6.30;99.90;;;;;;5034056;28;20914;-64
2023/01/28 02:01:10;;;;;;;6.93;6.32;;;6.20;99.90;;;;;;5033701;28;20424;-64
2023/01/28 02:03:48;;;;;;;7.10;6.43;;;6.20;99.90;;;;;;5034180;28;20204;-64
2023/01/28 02:06:14;;;;;;;6.85;6.35;;;6.20;99.90;;;;;;5049458;28;20494;-64
2023/01/28 02:08:42;;;;;;;8.33;7.53;;;6.10;99.90;;;;;;5054030;28;20250;-64
2023/01/28 02:11:09;;;;;;;7.57;6.95;;;6.20;99.90;;;;;;5017828;28;20244;-64
2023/01/28 02:13:43;;;;;;;7.28;6.78;;;6.20;99.90;;;;;;5033618;28;20214;-64
2023/01/28 02:16:09;;;;;;;7.40;6.70;;;6.10;99.90;;;;;;5015629;28;20168;-64
2023/01/28 02:18:35;;;;;;;7.78;7.18;;;6.20;99.90;;;;;;5033979;28;20271;-64
2023/01/28 02:21:13;;;;;;;7.73;7.10;;;6.20;99.90;;;;;;4999117;28;20257;-64
2023/01/28 02:23:48;;;;;;;8.15;7.22;;;6.10;99.90;;;;;;5016189;28;20437;-64
2023/01/28 02:26:20;;;;;;;8.20;7.60;;;6.20;99.90;;;;;;5039929;28;20647;-64
2023/01/28 02:29:00;;;;;;;8.93;8.02;;;6.20;99.90;;;;;;5053698;28;20187;-64
2023/01/28 02:31:45;;;;;;;8.40;7.75;;;6.20;99.90;;;;;;5047334;28;20690;-64
2023/01/28 02:34:27;;;;;;;8.10;7.50;;;6.00;99.90;;;;;;5033334;28;20493;-66
2023/01/28 02:37:03;;;;;;;7.93;7.25;;;5.90;99.90;;;;;;5033194;28;20513;-69
2023/01/28 02:39:35;;;;;;;7.85;7.25;;;6.00;99.90;;;;;;5033965;28;20175;-64
2023/01/28 02:42:04;;;;;;;8.80;8.10;;;6.00;99.90;;;;;;5032810;28;20718;-64
2023/01/28 02:44:30;;;;;;;8.73;7.82;;;6.00;99.90;;;;;;5033496;28;20207;-64
2023/01/28 02:49:53;;;;;;;7.50;6.90;;;6.00;99.90;;;;;;5033232;28;20178;-64
2023/01/28 02:55:42;;;;;;;7.68;6.97;;;6.00;99.90;;;;;;5032507;28;20213;-64
2023/01/28 02:58:12;;;;;;;7.60;6.85;;;6.00;99.90;;;;;;5032467;28;20198;-64
2023/01/28 03:00:55;;;;;;;7.13;6.53;;;5.70;99.90;;;;;;5043705;28;20186;-64
2023/01/28 03:03:39;;;;;;;8.07;7.38;;;5.80;99.90;;;;;;5052607;28;20216;-64
2023/01/28 03:06:13;;;;;;;7.00;6.50;;;5.80;99.90;;;;;;5050558;28;20184;-64
2023/01/28 03:38:16;;;;;;;7.43;6.82;;;5.80;99.90;;;;;;5051614;28;20583;-64
2023/01/28 03:40:56;;;;;;;7.20;6.68;;;5.90;99.90;;;;;;5052327;28;20363;-64
2023/01/28 03:43:23;;;;;;;8.02;7.32;;;5.90;99.90;;;;;;5052047;28;20217;-64
2023/01/28 03:45:52;;;;;;;7.80;7.28;;;6.00;99.90;;;;;;5052289;28;20261;-64
2023/01/28 03:48:19;;;;;;;8.02;7.03;;;6.00;99.90;;;;;;5033522;28;20771;-64
2023/01/28 03:50:45;;;;;;;8.52;7.82;;;6.00;99.90;;;;;;5021300;28;20187;-64
2023/01/28 03:53:11;;;;;;;8.85;8.15;;;6.00;99.90;;;;;;5031518;28;20183;-64
2023/01/28 03:55:37;;;;;;;8.83;8.13;;;6.00;99.90;;;;;;5032399;28;20176;-64
2023/01/28 03:58:04;;;;;;;9.30;8.40;;;6.10;99.90;;;;;;5031498;28;20290;-64
2023/01/28 04:00:31;;;;;;;8.38;7.53;;;6.10;99.40;;;;;;5033234;28;20421;-64
2023/01/28 04:02:58;;;;;;;8.75;7.22;;;6.20;99.00;;;;;;5049360;28;20293;-68
2023/01/28 04:05:24;;;;;;;8.60;7.80;;;6.20;98.20;;;;;;5050399;28;20325;-64
2023/01/28 04:07:54;;;;;;;9.05;8.07;;;6.10;98.10;;;;;;5033167;28;20669;-64
2023/01/28 04:10:20;;;;;;;8.73;7.93;;;6.10;98.30;;;;;;5051107;28;20178;-64
2023/01/28 04:12:48;;;;;;;10.00;9.10;;;6.10;99.40;;;;;;5051982;28;20177;-64
2023/01/28 04:15:15;;;;;;;10.90;9.80;;;5.90;99.40;;;;;;5051294;28;20174;-64
2023/01/28 04:17:47;;;;;;;10.43;9.50;;;5.70;99.90;;;;;;5051971;28;20174;-64
2023/01/28 04:20:15;;;;;;;10.13;9.13;;;5.70;99.90;;;;;;5049176;28;20193;-64
2023/01/28 04:22:42;;;;;;;8.55;7.78;;;5.70;99.90;;;;;;5051851;28;20237;-64
2023/01/28 04:25:08;;;;;;;9.60;8.80;;;5.70;99.90;;;;;;5051386;28;20557;-64
2023/01/28 04:27:34;;;;;;;10.23;8.75;;;5.80;99.90;;;;;;5052107;28;20173;-64
2023/01/28 04:30:00;;;;;;;9.50;8.60;;;5.80;99.90;;;;;;5050286;28;20186;-69
2023/01/28 04:32:27;;;;;;;9.18;8.27;;;5.90;99.80;;;;;;5049600;28;20456;-64
2023/01/28 04:34:53;;;;;;;10.43;9.53;;;5.90;99.90;;;;;;5044173;28;20229;-64
2023/01/28 04:37:19;;;;;;;9.10;8.30;;;5.90;99.90;;;;;;5045185;28;20753;-64
2023/01/28 04:39:44;;;;;;;10.37;9.30;;;5.90;99.80;;;;;;5037883;28;20236;-64
2023/01/28 04:42:10;;;;;;;9.80;8.90;;;6.00;99.90;;;;;;4997170;28;20192;-64
2023/01/28 04:44:36;;;;;;;10.30;9.30;;;6.00;98.90;;;;;;5031600;28;20237;-64
2023/01/28 04:47:01;;;;;;;10.23;9.33;;;6.00;98.80;;;;;;5047054;28;20178;-68
2023/01/28 04:49:27;;;;;;;9.73;8.50;;;6.00;99.00;;;;;;5051821;28;20506;-64
2023/01/28 04:51:53;;;;;;;9.73;8.80;;;6.00;99.60;;;;;;5051675;28;20260;-64
2023/01/28 04:54:18;;;;;;;10.00;8.87;;;6.00;99.70;;;;;;5051175;28;20621;-64
2023/01/28 04:56:44;;;;;;;10.53;9.27;;;5.90;99.90;;;;;;5050802;28;20171;-67
2023/01/28 04:59:10;;;;;;;10.33;9.37;;;5.90;99.90;;;;;;5050252;28;20186;-64
2023/01/28 05:01:35;;;;;;;11.70;10.50;;;5.80;99.90;;;;;;5051608;28;20190;-64
2023/01/28 05:04:04;;;;;;;11.90;10.77;;;5.90;99.90;;;;;;5032246;28;20221;-70
2023/01/28 05:06:33;;;;;;;10.40;9.40;;;5.80;99.90;;;;;;5051635;28;20174;-64
2023/01/28 05:08:59;;;;;;;10.13;9.07;;;5.80;99.90;;;;;;5051501;28;20174;-64
2023/01/28 05:11:25;;;;;;;11.52;10.20;;;5.80;99.90;;;;;;5050546;28;20253;-64
2023/01/28 05:13:50;;;;;;;9.40;8.40;;;5.80;99.90;;;;;;5051407;28;20273;-64
2023/01/28 05:16:16;;;;;;;10.37;9.37;;;5.60;99.90;;;;;;5050000;28;20174;-69
2023/01/28 05:18:42;;;;;;;10.90;9.87;;;5.50;99.90;;;;;;5052561;28;20182;-64
2023/01/28 05:21:08;;;;;;;10.73;9.63;;;5.60;99.90;;;;;;5054153;28;20171;-64
2023/01/28 05:23:34;;;;;;;10.80;9.70;;;5.60;99.90;;;;;;5054891;28;20201;-64
2023/01/28 05:26:00;;;;;;;11.27;10.07;;;5.60;99.90;;;;;;5054902;28;20471;-63
2023/01/28 05:28:25;;;;;;;10.80;9.80;;;5.60;99.90;;;;;;5035371;28;20452;-64
2023/01/28 05:30:51;;;;;;;10.47;9.37;;;5.60;99.90;;;;;;5054757;28;20170;-64
2023/01/28 05:33:17;;;;;;;10.97;9.87;;;5.70;99.90;;;;;;5040310;28;20198;-63
2023/01/28 05:35:43;;;;;;;11.73;9.97;;;5.60;99.90;;;;;;5034721;28;20234;-64
2023/01/28 05:38:08;;;;;;;13.60;10.10;;;5.70;99.90;;;;;;5033370;28;20194;-64
2023/01/28 05:40:34;;;;;;;10.90;9.83;;;5.70;99.90;;;;;;5047014;28;20436;-63
2023/01/28 05:43:00;;;;;;;13.20;11.03;;;5.70;99.70;;;;;;5059666;28;20447;-63
2023/01/28 05:45:26;;;;;;;10.80;9.20;;;5.70;99.00;;;;;;5054625;28;20190;-63
2023/01/28 05:47:51;;;;;;;14.07;10.13;;;5.80;98.80;;;;;;5057435;28;20268;-64
2023/01/28 05:50:17;;;;;;;11.50;10.50;;;5.80;98.90;;;;;;5053409;28;20231;-65
2023/01/28 05:52:43;;;;;;;10.87;9.80;;;5.80;99.00;;;;;;5062313;28;20176;-64
2023/01/28 05:55:09;;;;;;;11.90;10.70;;;5.80;99.70;;;;;;5073972;28;20174;-64
2023/01/28 05:57:35;;;;;;;11.60;10.40;;;5.80;99.60;;;;;;5061624;28;20575;-63
2023/01/28 06:00:01;;;;;;;11.77;10.40;;;5.80;99.90;;;;;;5064824;28;20180;-63
2023/01/28 06:02:27;;;;;;;11.20;10.00;;;5.70;99.90;;;;;;5065492;28;20182;-63
2023/01/28 06:04:53;;;;;;;11.87;10.57;;;5.60;99.90;;;;;;5054463;28;20742;-63
2023/01/28 06:07:19;;;;;;;13.27;11.27;;;5.60;99.90;;;;;;5054027;28;20173;-63
2023/01/28 06:09:46;;;;;;;13.57;10.05;;;5.50;99.90;;;;;;5054425;28;20170;-64
2023/01/28 06:12:12;;;;;;;13.02;11.52;;;5.40;99.90;;;;;;5054044;28;20216;-64
2023/01/28 06:14:38;;;;;;;11.82;10.35;;;5.50;99.90;;;;;;5054400;28;20170;-64
2023/01/28 06:17:04;;;;;;;10.90;9.80;;;5.40;99.90;;;;;;5054604;28;20570;-67
2023/01/28 06:19:29;;;;;;;11.67;10.47;;;5.50;99.90;;;;;;5054359;28;20177;-63
2023/01/28 06:21:55;;;;;;;12.57;10.27;;;5.40;99.90;;;;;;5054392;28;20178;-63
2023/01/28 06:24:23;;;;;;;12.30;11.00;;;5.30;99.90;;;;;;5053637;28;20272;-63
2023/01/28 06:26:49;;;;;;;13.00;10.75;;;5.40;99.90;;;;;;5054285;28;20174;-63
2023/01/28 06:29:15;;;;;;;11.87;10.20;;;5.50;99.90;;;;;;5053210;28;20316;-63
2023/01/28 06:31:40;;;;;;;11.23;10.13;;;5.50;99.90;;;;;;5057662;28;20256;-63
2023/01/28 06:34:07;;;;;;;11.07;9.87;;;5.50;99.80;;;;;;5062111;28;20225;-64
2023/01/28 06:36:34;;;;;;;11.20;10.00;;;5.60;98.80;;;;;;5053996;28;20195;-64
2023/01/28 06:39:00;;;;;;;11.88;10.70;;;5.70;98.50;;;;;;5054026;28;20166;-63
2023/01/28 06:41:25;;;;;;;11.23;9.83;;;5.70;98.50;;;;;;5042124;28;20229;-64
2023/01/28 06:43:51;;;;;;;11.27;10.13;;;5.70;98.60;;;;;;5031544;28;20213;-64
2023/01/28 06:46:17;;;;;;;12.10;10.90;;;5.70;98.30;;;;;;5032454;28;20416;-64
2023/01/28 06:48:42;;;;;;;13.87;11.60;;;5.70;98.60;;;;;;5033595;28;20692;-64
2023/01/28 06:51:08;;;;;;;14.10;11.20;;;5.70;98.40;;;;;;5025795;28;20541;-70
2023/01/28 06:53:34;;;;;;;12.00;10.87;;;5.60;98.00;;;;;;5052866;28;20178;-64
2023/01/28 06:55:59;;;;;;;11.57;10.37;;;5.50;98.20;;;;;;5028163;28;20206;-64
2023/01/28 06:58:25;;;;;;;13.10;10.30;;;5.50;97.50;;;;;;5034147;28;20829;-64
2023/01/28 07:00:52;;;;;;;12.13;10.80;;;5.50;96.70;;;;;;5053446;28;20181;-64
2023/01/28 07:03:18;;;;;;;11.93;10.75;;;5.60;96.20;;;;;;5055824;28;20555;-64
2023/01/28 07:05:44;;;;;;;11.00;9.93;;;5.60;96.00;;;;;;5055607;28;20184;-64
2023/01/28 07:08:10;;;;;;;11.50;10.30;;;5.60;95.90;;;;;;5059998;28;20212;-64
2023/01/28 07:10:35;;;;;;;11.83;9.97;;;5.60;95.50;;;;;;5053541;28;20206;-64
2023/01/28 07:13:02;;;;;;;11.20;10.10;;;5.60;95.70;;;;;;5053273;28;20412;-65
2023/01/28 07:15:28;;;;;;;11.02;9.77;;;5.60;95.80;;;;;;5052655;28;20177;-65
2023/01/28 07:17:53;;;;;;;13.20;11.83;;;5.60;95.60;;;;;;5018910;28;20269;-65
2023/01/28 07:20:19;;;;;;;11.80;10.60;;;5.60;95.20;;;;;;5052555;28;20441;-64
2023/01/28 07:22:45;;;;;;;11.27;10.07;;;5.60;95.40;;;;;;5052682;28;20201;-64
2023/01/28 07:25:12;;;;;;;11.13;9.97;;;5.60;95.70;;;;;;5051577;28;20867;-65
2023/01/28 07:27:38;;;;;;;12.60;10.65;;;5.50;95.60;;;;;;5051372;28;20398;-64
2023/01/28 07:30:04;;;;;;;12.13;10.83;;;5.50;95.70;;;;;;5052985;28;20200;-65
2023/01/28 07:32:30;;;;;;;11.25;10.05;;;5.40;96.30;;;;;;5051944;28;20634;-65
2023/01/28 07:34:56;;;;;;;14.90;10.03;;;5.40;95.60;;;;;;5052865;28;20227;-65
2023/01/28 07:37:22;;;;;;;11.00;9.63;;;5.50;95.80;;;;;;5052307;28;20542;-64
2023/01/28 07:39:47;;;;;;;10.60;9.60;;;5.40;96.70;;;;;;5052550;28;20216;-63
2023/01/28 07:42:13;;;;;;;10.33;8.73;;;5.60;97.50;;;;;;5035560;28;20541;-65
2023/01/28 07:44:39;;;;;;;9.33;8.43;;;5.50;97.10;;;;;;5040049;28;20212;-65
2023/01/28 07:47:05;;;;;;;9.10;8.07;;;5.50;96.90;;;;;;5017969;28;20227;-66
2023/01/28 07:49:33;;;;;;;9.68;8.75;;;5.50;95.70;;;;;;5048162;28;20209;-65
2023/01/28 07:51:58;;;;;;;9.05;8.15;;;5.50;95.10;;;;;;5049080;28;20178;-66
2023/01/28 07:54:24;;;;;;;9.30;8.40;;;5.50;94.90;;;;;;5048485;28;20189;-64
2023/01/28 07:56:50;;;;;;;9.17;8.27;;;5.50;95.00;;;;;;5047386;28;20629;-64
2023/01/28 07:59:15;;;;;;;8.00;7.20;;;5.50;94.90;;;;;;5044020;28;20262;-64
2023/01/28 08:01:41;;;;;;;8.90;8.00;;;5.60;94.60;;;;;;5036280;28;20187;-64
2023/01/28 08:04:07;;;;;;;8.77;8.07;;;5.60;95.00;;;;;;5050732;28;20270;-64
2023/01/28 08:06:36;;;;;;;8.50;7.60;;;5.50;96.10;;;;;;5032454;28;20174;-64
2023/01/28 08:09:07;;;;;;;8.75;7.90;;;5.40;95.90;;;;;;5014347;28;20533;-64
2023/01/28 08:11:35;;;;;;;8.73;7.88;;;5.40;95.90;;;;;;5042691;28;20175;-64
2023/01/28 08:14:00;;;;;;;8.35;7.53;;;5.60;95.40;;;;;;5014757;28;20178;-64
2023/01/28 08:16:27;;;;;;;8.13;7.40;;;5.50;94.50;;;;;;5032013;28;20182;-64
2023/01/28 08:18:53;;;;;;;9.43;8.52;;;5.60;94.50;;;;;;5032148;28;20517;-64
2023/01/28 08:21:18;;;;;;;8.53;7.73;;;5.50;94.60;;;;;;5014207;28;20171;-64
2023/01/28 08:23:44;;;;;;;10.20;8.43;;;5.60;95.70;;;;;;5032418;28;20212;-64
2023/01/28 08:26:12;;;;;;;8.20;7.50;;;5.50;94.00;;;;;;5039250;28;20201;-64
2023/01/28 08:28:38;;;;;;;8.50;7.72;;;5.50;94.40;;;;;;5042195;28;20188;-64
2023/01/28 08:31:04;;;;;;;8.73;7.90;;;5.50;94.90;;;;;;5044880;28;20257;-64
2023/01/28 08:33:29;;;;;;;9.57;8.77;;;5.50;94.70;;;;;;5029704;28;20523;-64
2023/01/28 08:35:55;;;;;;;8.40;7.67;;;5.50;94.60;;;;;;5052264;28;20391;-64
2023/01/28 08:38:21;;;;;;;7.10;6.50;;;5.60;94.70;;;;;;5051621;28;20176;-64
2023/01/28 08:40:49;;;;;;;8.90;8.02;;;5.60;94.70;;;;;;5045471;28;20686;-64
2023/01/28 08:43:15;;;;;;;9.20;8.30;;;5.60;94.50;;;;;;5035303;28;20213;-63
2023/01/28 08:45:41;;;;;;;8.40;7.70;;;5.60;95.10;;;;;;5030197;28;20182;-64
2023/01/28 08:48:10;;;;;;;8.03;7.33;;;5.70;94.50;;;;;;5031560;28;20178;-64
2023/01/28 08:50:38;;;;;;;8.98;8.07;;;5.70;93.90;;;;;;5045308;28;20420;-64
2023/01/28 08:53:07;;;;;;;9.13;8.32;;;5.80;94.00;;;;;;5047759;28;20655;-64
2023/01/28 08:55:33;;;;;;;9.27;8.43;;;5.80;93.90;;;;;;5042130;28;20178;-64
2023/01/28 08:58:09;;;;;;;12.80;10.25;;;5.80;94.50;;;;;;5024889;28;20269;-65
2023/01/28 09:00:35;;;;;;;9.40;8.40;;;5.80;94.40;;;;;;5036786;28;20238;-66
2023/01/28 09:03:00;;;;;;;9.77;8.82;;;5.70;95.20;;;;;;5036620;28;20258;-65
2023/01/28 09:05:26;;;;;;;8.23;7.43;;;5.50;95.70;;;;;;5042027;28;20187;-65
2023/01/28 09:07:52;;;;;;;9.00;8.20;;;5.00;96.50;;;;;;5038827;28;20277;-64
2023/01/28 09:10:19;;;;;;;8.80;7.80;;;4.90;97.30;;;;;;5042120;28;20398;-65
2023/01/28 09:12:45;;;;;;;8.43;7.65;;;5.10;95.80;;;;;;5041296;28;20184;-64
2023/01/28 09:15:11;;;;;;;9.18;8.18;;;5.20;95.30;;;;;;5043682;28;20174;-68
2023/01/28 09:17:37;;;;;;;9.23;8.43;;;5.20;95.80;;;;;;5039142;28;20179;-65
2023/01/28 09:20:04;;;;;;;8.93;8.03;;;5.20;96.10;;;;;;5038598;28;20594;-64
2023/01/28 09:22:30;;;;;;;9.60;8.70;;;5.30;95.00;;;;;;5033615;28;20186;-64
2023/01/28 09:24:56;;;;;;;350.63;159.40;;;5.40;94.70;;;;;;5035407;28;20189;-64
2023/01/28 09:27:22;;;;;;;179.27;84.57;;;5.50;94.60;;;;;;5034176;28;20258;-65
2023/01/28 09:29:47;;;;;;;18.03;13.87;;;5.60;95.50;;;;;;5035047;28;20175;-64
2023/01/28 09:32:14;;;;;;;9.93;9.03;;;5.60;94.60;;;;;;5045350;28;20737;-66
2023/01/28 09:34:39;;;;;;;10.52;9.45;;;5.70;94.80;;;;;;5036656;28;20684;-64
2023/01/28 09:37:05;;;;;;;10.50;9.10;;;5.70;94.40;;;;;;5017225;28;20170;-64
2023/01/28 09:39:31;;;;;;;10.57;9.20;;;5.70;97.00;;;;;;5044741;28;20440;-64
2023/01/28 09:41:57;;;;;;;10.70;9.70;;;5.40;94.70;;;;;;5045238;28;20219;-65
2023/01/28 09:44:44;;;;;;;10.00;9.00;;;5.30;96.90;;;;;;5044116;28;20245;-66
2023/01/28 09:47:40;;;;;;;12.68;9.60;;;5.20;97.50;;;;;;5034681;28;20162;-66
2023/01/28 09:50:16;;;;;;;192.43;81.80;;;5.30;96.20;;;;;;5020345;28;20229;-66
2023/01/28 09:52:42;;;;;;;20.23;14.32;;;5.30;95.50;;;;;;5040473;28;20231;-66
2023/01/28 09:55:29;;;;;;;10.60;9.70;;;5.30;96.60;;;;;;5054421;28;20224;-66
2023/01/28 09:57:56;;;;;;;10.63;9.18;;;5.50;95.70;;;;;;5054704;28;20256;-66
2023/01/28 10:00:28;;;;;;;8.80;8.00;;;5.50;94.30;;;;;;5020837;28;20192;-66
2023/01/28 10:03:21;;;;;;;11.32;9.43;;;5.60;94.20;;;;;;5034016;28;20198;-66
2023/01/28 10:06:02;;;;;;;10.98;9.32;;;5.50;94.40;;;;;;5033945;28;20171;-65
2023/01/28 10:08:54;;;;;;;13.10;9.98;;;5.60;96.40;;;;;;5033881;28;20199;-64
2023/01/28 10:11:39;;;;;;;9.45;8.65;;;5.60;97.10;;;;;;5032873;28;20178;-70
2023/01/28 10:14:11;;;;;;;9.45;8.52;;;5.50;96.70;;;;;;5034378;28;20193;-65
2023/01/28 10:16:47;;;;;;;9.68;8.77;;;5.50;95.50;;;;;;5018226;28;20607;-64
2023/01/28 10:19:28;;;;;;;9.10;8.30;;;5.50;94.70;;;;;;5036213;28;20165;-64
2023/01/28 10:22:02;;;;;;;9.27;8.38;;;5.60;94.30;;;;;;5054218;28;20250;-64
2023/01/28 10:24:37;;;;;;;9.48;8.20;;;5.70;94.50;;;;;;5047595;28;20263;-65
2023/01/28 10:27:18;;;;;;;9.30;8.40;;;5.80;93.20;;;;;;5016739;28;20182;-65
2023/01/28 10:29:46;;;;;;;10.00;8.70;;;5.80;93.60;;;;;;5040975;28;20248;-64
2023/01/28 10:32:33;;;;;;;9.27;8.48;;;5.80;93.00;;;;;;5047218;28;20186;-64
2023/01/28 10:35:00;;;;;;;9.52;8.65;;;5.90;92.10;;;;;;5034393;28;20189;-64
2023/01/28 10:37:26;;;;;;;10.80;9.80;;;5.90;92.40;;;;;;5048873;28;20186;-64
2023/01/28 10:39:56;;;;;;;10.25;9.30;;;6.00;92.90;;;;;;5032796;28;20187;-67
2023/01/28 10:42:29;;;;;;;10.13;8.93;;;6.00;91.80;;;;;;5033137;28;20179;-65
2023/01/28 10:45:12;;;;;;;11.00;9.90;;;6.00;91.30;;;;;;5035120;28;20276;-64
2023/01/28 10:47:43;;;;;;;8.75;7.85;;;6.00;91.30;;;;;;5029763;28;20188;-65
2023/01/28 10:50:22;;;;;;;8.90;8.10;;;5.80;90.80;;;;;;5035085;28;20640;-65
2023/01/28 10:53:02;;;;;;;9.55;8.60;;;5.60;91.30;;;;;;5052477;28;20281;-63
2023/01/28 10:55:33;;;;;;;9.13;8.20;;;5.70;91.30;;;;;;5051734;28;20233;-63
2023/01/28 10:58:01;;;;;;;9.23;8.32;;;5.70;92.00;;;;;;5023228;28;20516;-64
2023/01/28 11:00:32;;;;;;;8.93;8.13;;;5.70;92.70;;;;;;5032714;28;20174;-63
2023/01/28 11:02:58;;;;;;;9.68;8.40;;;5.70;93.80;;;;;;5041759;28;20205;-64
2023/01/28 11:05:29;;;;;;;9.05;7.93;;;5.70;92.90;;;;;;5042984;28;20181;-66
2023/01/28 11:08:11;;;;;;;8.63;7.93;;;5.70;93.50;;;;;;5040990;28;20232;-64
2023/01/28 11:10:39;;;;;;;8.45;7.65;;;5.70;93.30;;;;;;5041608;28;20189;-64
2023/01/28 11:13:13;;;;;;;9.23;8.43;;;5.80;93.10;;;;;;5041354;28;20186;-64
2023/01/28 11:16:03;;;;;;;9.00;8.20;;;5.80;93.70;;;;;;5041030;28;20607;-64
2023/01/28 11:18:37;;;;;;;7.93;7.32;;;5.80;93.60;;;;;;5041101;28;20177;-64
2023/01/28 11:21:06;;;;;;;8.60;7.80;;;5.80;93.90;;;;;;5044024;28;20220;-64
2023/01/28 11:23:38;;;;;;;7.53;6.93;;;5.80;93.00;;;;;;5024258;28;20206;-65
2023/01/28 11:26:05;;;;;;;8.98;7.55;;;5.90;92.80;;;;;;5023432;28;20246;-65
2023/01/28 11:28:31;;;;;;;9.40;8.40;;;5.90;92.80;;;;;;5033217;28;20542;-65
2023/01/28 11:31:01;;;;;;;9.75;8.85;;;5.90;94.00;;;;;;5041624;28;20193;-65
2023/01/28 11:33:36;;;;;;;11.43;8.23;;;5.90;93.60;;;;;;5043090;28;20190;-65
2023/01/28 11:36:14;;;;;;;10.02;8.60;;;5.80;94.00;;;;;;5041166;28;20266;-64
2023/01/28 11:39:18;;;;;;;8.30;7.45;;;5.60;94.10;;;;;;5043582;28;20174;-66
2023/01/28 11:41:46;;;;;;;8.45;7.63;;;5.10;94.40;;;;;;5027651;28;20217;-64
2023/01/28 11:44:19;;;;;;;9.55;8.63;;;4.90;95.60;;;;;;5042407;28;20213;-64
2023/01/28 11:46:55;;;;;;;10.52;9.00;;;5.00;94.90;;;;;;5040714;28;20240;-64
2023/01/28 11:49:36;;;;;;;9.23;7.63;;;5.10;94.70;;;;;;5041287;28;20243;-65
2023/01/28 11:52:24;;;;;;;10.18;8.52;;;5.10;95.30;;;;;;5038562;28;20179;-65
2023/01/28 11:54:55;;;;;;;10.75;9.63;;;5.20;94.50;;;;;;5043607;28;20162;-66
2023/01/28 11:57:46;;;;;;;9.27;7.88;;;5.30;94.70;;;;;;5025356;28;20630;-66
2023/01/28 12:00:40;;;;;;;11.15;8.38;;;5.00;95.30;;;;;;5040121;28;20186;-65
2023/01/28 12:03:41;;;;;;;10.02;8.60;;;5.10;94.30;;;;;;5025901;28;20254;-65
2023/01/28 12:06:41;;;;;;;9.95;8.80;;;5.20;93.40;;;;;;5035939;28;20236;-65
2023/01/28 12:09:43;;;;;;;12.68;8.55;;;5.40;92.50;;;;;;4999463;28;20243;-65
2023/01/28 12:12:12;;;;;;;10.70;9.43;;;5.40;91.60;;;;;;5052193;28;20161;-65
2023/01/28 12:15:01;;;;;;;9.40;8.50;;;5.50;91.60;;;;;;5042736;28;20179;-65
2023/01/28 12:17:39;;;;;;;10.23;7.93;;;5.60;91.10;;;;;;5049136;28;20189;-65
2023/01/28 12:20:10;;;;;;;11.43;10.23;;;5.50;90.60;;;;;;5037961;28;20183;-63
2023/01/28 12:22:48;;;;;;;11.35;9.40;;;5.50;91.10;;;;;;5042591;28;20181;-65
2023/01/28 12:25:25;;;;;;;10.82;9.70;;;5.60;92.00;;;;;;5042834;28;20181;-65
2023/01/28 12:28:29;;;;;;;10.75;8.95;;;5.70;92.40;;;;;;5054262;28;20172;-65
2023/01/28 12:30:58;;;;;;;11.27;9.65;;;5.70;91.10;;;;;;5056049;28;20563;-66
2023/01/28 12:33:23;;;;;;;10.13;8.88;;;5.70;91.50;;;;;;5056120;28;20231;-65
2023/01/28 12:36:05;;;;;;;10.40;9.23;;;5.80;91.40;;;;;;5037863;28;20182;-65
2023/01/28 12:38:51;;;;;;;10.50;9.50;;;5.90;91.00;;;;;;5055455;28;20159;-65
2023/01/28 12:41:21;;;;;;;12.50;10.27;;;5.90;91.10;;;;;;5055321;28;20222;-65
2023/01/28 12:43:58;;;;;;;10.63;9.45;;;6.00;90.80;;;;;;5055474;28;20285;-65
2023/01/28 12:46:38;;;;;;;10.68;9.57;;;6.10;90.60;;;;;;5038028;28;20590;-65
2023/01/28 12:49:16;;;;;;;11.65;10.55;;;6.20;90.20;;;;;;5035126;28;20187;-64
2023/01/28 12:51:45;;;;;;;10.10;9.20;;;6.30;88.00;;;;;;5054298;28;20185;-64
2023/01/28 12:54:17;;;;;;;11.60;10.50;;;6.30;87.40;;;;;;5056165;28;20269;-64
2023/01/28 12:56:49;;;;;;;10.88;9.77;;;6.40;88.10;;;;;;5020971;28;20413;-64
2023/01/28 12:59:36;;;;;;;12.32;9.60;;;6.10;87.80;;;;;;5037008;28;20182;-64
2023/01/28 13:02:11;;;;;;;10.32;8.95;;;5.80;88.00;;;;;;5055798;28;20245;-64
2023/01/28 13:04:48;;;;;;;11.25;10.15;;;5.50;89.90;;;;;;5054748;28;20288;-63
2023/01/28 13:07:34;;;;;;;10.77;9.68;;;5.70;90.70;;;;;;5055678;28;20657;-64
2023/01/28 13:10:14;;;;;;;11.73;10.52;;;5.90;91.90;;;;;;5055436;28;20653;-64
2023/01/28 13:12:40;;;;;;;11.93;10.73;;;6.10;90.70;;;;;;5053948;28;20174;-64
2023/01/28 13:15:17;;;;;;;11.50;10.30;;;6.30;90.10;;;;;;5055367;28;20183;-64
2023/01/28 13:18:31;;;;;;;10.83;9.73;;;6.40;87.70;;;;;;5035705;28;20162;-64
2023/01/28 13:20:57;;;;;;;10.17;9.17;;;6.50;86.90;;;;;;5046773;28;20428;-64
2023/01/28 13:23:43;;;;;;;11.30;10.27;;;6.60;86.40;;;;;;5038228;28;20858;-64
2023/01/28 13:26:17;;;;;;;11.90;10.70;;;6.70;86.00;;;;;;5043754;28;20492;-64
2023/01/28 13:28:44;;;;;;;13.57;9.83;;;6.80;86.80;;;;;;5054767;28;20401;-64
2023/01/28 13:31:16;;;;;;;11.10;9.97;;;6.90;86.60;;;;;;5037439;28;20421;-64
2023/01/28 13:33:45;;;;;;;11.40;10.20;;;7.00;86.80;;;;;;5036761;28;20792;-64
2023/01/28 13:36:19;;;;;;;11.40;10.30;;;7.00;88.40;;;;;;5039977;28;20435;-65
2023/01/28 13:38:45;;;;;;;10.43;9.43;;;7.20;87.90;;;;;;5041680;28;20419;-65
2023/01/28 13:41:11;;;;;;;11.13;9.93;;;7.20;86.30;;;;;;5038184;28;20504;-65